Aeroporto :
LOGIN :

Iscrizione | Disclaimer

   EN    FR    IT 

 










Sommario :    VFR   VFR Marginale   IFR   IFR Intensivo   IFR Molto Intensivo
Visibilità : 
Base nubi : 
>= 8 km
>= 3000ft
5 / 8 km
1000 / 3000 ft
1500m / 5 km
500 / 1000 ft
800 / 1500m
200 / 500 ft
< 800m
< 200 ft
Simboli :   Temporali  Nebbia  Neve Forte  Precipitazioni Forti  Vento > 20 kt
SIGMETs :   Varie  Temporali  Ghiacco  Turbolenza  Onda orograficha  Ceneri Vulcaniche






- Altitudine del aeroporto : 26 ft
- Codice IATA : GLA


EGPF - Glasgow

ULTIMO METAR :
  • 070220Z AUTO 26006KT 9999 NCD 09/07 Q1004

METARs OBSOLETI :
  • 070150Z AUTO 27007KT 9999 NCD 10/07 Q1004
  • 070120Z AUTO 27007KT 9999 NCD 10/07 Q1004
  • 070050Z AUTO 25007KT 9999 NCD 10/08 Q1004
  • 070020Z AUTO 27008KT 9999 NCD 11/08 Q1004
  • 062350Z AUTO 29009KT 9999 NCD 11/08 Q1003

TAF TAF EGPF
Valido dal 07 a 00 ore il 08 a 00 ore UTC


062253Z 0700/0724 30010KT 9999 SCT045
TEMPO 0700/0707 24005KT
BECMG 0707/0710 03010KT
BECMG 0716/0719 09008KT
ATIS : +44 141 887 7449



MetMap, La meteo Aeronautica in un colpo d'occhio ! - Copyright ORBIFLY Dicembre 2007 - Disclaimer

ORBIFLY MET'MAP TEAM :

Programmazione e sviluppo : Alexandra Zaïnal
Concezione : Baudouin d'Aumeries
Aiuto per la programmazione : Marc-Olivier Méhu
Supporto tecnico e logistico : Manuel Goepfert
Aiuto per la traduzione : Arnaldo La Scala

Contatto : metmap@orbifly.com




FONTI E CREDITI :

   NOAA